createdAt,value
2023-01-05T00:01:33.015Z,101428.28
2023-01-05T00:03:59.952Z,101443.59
2023-01-05T00:06:28.194Z,101426.97
2023-01-05T00:08:55.109Z,101445.81
2023-01-05T00:11:43.298Z,101439.16
2023-01-05T00:14:31.940Z,101439.69
2023-01-05T00:17:17.102Z,101437.41
2023-01-05T00:20:02.407Z,101441.91
2023-01-05T00:22:43.093Z,101444.06
2023-01-05T00:25:12.971Z,101442.56
2023-01-05T00:27:40.641Z,101447.09
2023-01-05T00:30:08.625Z,101439.25
2023-01-05T00:32:35.523Z,101441.44
2023-01-05T00:35:02.577Z,101443.25
2023-01-05T00:37:34.554Z,101448.97
2023-01-05T00:40:02.136Z,101449.47
2023-01-05T00:42:28.834Z,101444.50
2023-01-05T00:44:55.676Z,101442.03
2023-01-05T00:47:22.460Z,101443.03
2023-01-05T00:49:49.306Z,101438.06
2023-01-05T00:52:16.287Z,101435.56
2023-01-05T00:54:44.448Z,101435.91
2023-01-05T00:57:11.482Z,101439.56
2023-01-05T00:59:38.368Z,101442.75
2023-01-05T01:02:05.249Z,101448.25
2023-01-05T01:04:32.610Z,101452.13
2023-01-05T01:06:59.763Z,101463.94
2023-01-05T01:09:26.653Z,101464.94
2023-01-05T01:11:54.833Z,101470.41
2023-01-05T01:14:21.592Z,101474.28
2023-01-05T01:16:48.537Z,101477.09
2023-01-05T01:19:19.026Z,101474.44
2023-01-05T01:21:46.329Z,101480.94
2023-01-05T01:24:17.861Z,101490.75
2023-01-05T01:26:46.131Z,101480.09
2023-01-05T01:29:17.284Z,101485.63
2023-01-05T01:31:44.917Z,101489.28
2023-01-05T01:34:11.765Z,101490.28
2023-01-05T01:36:38.542Z,101500.25
2023-01-05T01:39:05.365Z,101507.41
2023-01-05T01:41:32.177Z,101511.88
2023-01-05T01:43:59.429Z,101505.75
2023-01-05T01:46:28.339Z,101510.22
2023-01-05T01:48:59.099Z,101508.59
2023-01-05T01:51:32.352Z,101510.44
2023-01-05T01:54:04.276Z,101516.75
2023-01-05T01:56:35.701Z,101517.91
2023-01-05T01:59:03.116Z,101519.72
2023-01-05T02:01:34.675Z,101518.06
2023-01-05T02:04:01.738Z,101522.56
2023-01-05T02:06:28.565Z,101527.88
2023-01-05T02:08:55.744Z,101518.06
2023-01-05T02:11:36.428Z,101516.25
2023-01-05T02:14:17.039Z,101518.06
2023-01-05T02:16:57.714Z,101526.88
2023-01-05T02:19:58.394Z,101526.72
2023-01-05T02:22:58.428Z,101523.22
2023-01-05T02:25:56.066Z,101527.72
2023-01-05T02:28:41.324Z,101525.88
2023-01-05T02:31:15.124Z,101521.56
2023-01-05T02:34:02.140Z,101519.56
2023-01-05T02:36:34.475Z,101530.22
2023-01-05T02:39:08.180Z,101535.38
2023-01-05T02:41:40.457Z,101527.22
2023-01-05T02:44:09.014Z,101527.22
2023-01-05T02:46:37.634Z,101527.03
2023-01-05T02:49:06.099Z,101532.53
2023-01-05T02:51:37.032Z,101525.34
2023-01-05T02:54:09.160Z,101529.88
2023-01-05T02:56:40.855Z,101526.19
2023-01-05T02:59:12.165Z,101532.34
2023-01-05T03:01:44.997Z,101534.19
2023-01-05T03:04:20.551Z,101535.22
2023-01-05T03:06:56.534Z,101532.34
2023-01-05T03:09:27.158Z,101549.97
2023-01-05T03:12:19.355Z,101541.00
2023-01-05T03:14:50.469Z,101545.31
2023-01-05T03:17:25.977Z,101536.50
2023-01-05T03:19:53.869Z,101538.16
2023-01-05T03:22:44.904Z,101539.00
2023-01-05T03:25:34.612Z,101536.34
2023-01-05T03:28:22.296Z,101539.16
2023-01-05T03:31:16.068Z,101536.50
2023-01-05T03:34:07.730Z,101536.50
2023-01-05T03:36:41.620Z,101535.69
2023-01-05T03:39:10.833Z,101533.84
2023-01-05T03:41:38.867Z,101534.69
2023-01-05T03:44:06.968Z,101541.81
2023-01-05T03:46:33.946Z,101541.81
2023-01-05T03:49:02.361Z,101538.16
2023-01-05T03:51:29.104Z,101546.16
2023-01-05T03:53:56.257Z,101545.16
2023-01-05T03:56:23.053Z,101538.16
2023-01-05T03:58:49.841Z,101535.50
2023-01-05T04:01:17.280Z,101542.66
2023-01-05T04:03:44.209Z,101548.81
2023-01-05T04:06:12.855Z,101543.50
2023-01-05T04:08:39.772Z,101540.16
2023-01-05T04:11:14.607Z,101546.16
2023-01-05T04:13:41.402Z,101554.13
2023-01-05T04:16:08.469Z,101547.16
2023-01-05T04:18:35.655Z,101557.47
2023-01-05T04:21:02.885Z,101553.97
2023-01-05T04:23:31.134Z,101555.59
2023-01-05T04:25:58.010Z,101544.16
2023-01-05T04:28:25.889Z,101549.66
2023-01-05T04:30:55.170Z,101548.81
2023-01-05T04:33:23.527Z,101548.81
2023-01-05T04:35:50.515Z,101560.47
2023-01-05T04:38:17.558Z,101564.78
2023-01-05T04:40:49.898Z,101561.13
2023-01-05T04:43:17.124Z,101566.44
2023-01-05T04:45:46.425Z,101560.94
2023-01-05T04:48:13.258Z,101570.78
2023-01-05T04:50:40.139Z,101567.28
2023-01-05T04:53:07.003Z,101570.78
2023-01-05T04:55:33.753Z,101570.94
2023-01-05T04:58:04.476Z,101567.44
2023-01-05T05:00:33.776Z,101567.28
2023-01-05T05:03:00.962Z,101572.59
2023-01-05T05:05:27.764Z,101573.59
2023-01-05T05:07:54.646Z,101571.56
2023-01-05T05:10:22.528Z,101577.94
2023-01-05T05:12:49.379Z,101591.22
2023-01-05T05:15:17.678Z,101584.09
2023-01-05T05:17:44.416Z,101591.22
2023-01-05T05:20:12.083Z,101588.72
2023-01-05T05:22:39.005Z,101597.72
2023-01-05T05:25:07.001Z,101603.03
2023-01-05T05:27:33.878Z,101601.22
2023-01-05T05:30:00.658Z,101604.69
2023-01-05T05:32:28.864Z,101603.88
2023-01-05T05:34:55.719Z,101612.69
2023-01-05T05:37:22.444Z,101606.53
2023-01-05T05:39:49.237Z,101614.50
2023-01-05T05:42:16.094Z,101618.00
2023-01-05T05:44:42.851Z,101623.34
2023-01-05T05:47:09.614Z,101624.16
2023-01-05T05:49:37.800Z,101634.66
2023-01-05T05:52:05.956Z,101636.47
2023-01-05T05:54:32.725Z,101632.16
2023-01-05T05:56:59.438Z,101637.31
2023-01-05T05:59:26.230Z,101645.28
2023-01-05T06:01:53.093Z,101645.28
2023-01-05T06:04:21.451Z,101650.78
2023-01-05T06:06:49.719Z,101649.59
2023-01-05T06:09:16.476Z,101649.59
2023-01-05T06:11:43.280Z,101652.09
2023-01-05T06:14:10.190Z,101659.06
2023-01-05T06:16:37.096Z,101657.41
2023-01-05T06:19:03.999Z,101661.72
2023-01-05T06:21:30.762Z,101666.22
2023-01-05T06:23:59.191Z,101668.72
2023-01-05T06:26:25.953Z,101678.38
2023-01-05T06:28:52.836Z,101673.88
2023-01-05T06:31:19.719Z,101686.53
2023-01-05T06:33:49.529Z,101675.03
2023-01-05T06:36:16.385Z,101678.53
2023-01-05T06:38:43.193Z,101686.53
2023-01-05T06:41:11.375Z,101678.53
2023-01-05T06:43:38.249Z,101691.00
2023-01-05T06:46:05.335Z,101694.50
2023-01-05T06:48:32.176Z,101693.50
2023-01-05T06:50:59.168Z,101690.69
2023-01-05T06:53:25.958Z,101708.28
2023-01-05T06:55:52.650Z,101710.94
2023-01-05T06:58:20.826Z,101714.44
2023-01-05T07:00:47.595Z,101716.28
2023-01-05T07:03:14.769Z,101711.78
2023-01-05T07:05:42.070Z,101715.28
2023-01-05T07:08:08.943Z,101716.13
2023-01-05T07:10:35.834Z,101709.97
2023-01-05T07:13:02.762Z,101718.78
2023-01-05T07:15:31.083Z,101717.78
2023-01-05T07:17:57.944Z,101722.28
2023-01-05T07:20:24.655Z,101721.28
2023-01-05T07:22:51.491Z,101722.94
2023-01-05T07:25:18.500Z,101724.78
2023-01-05T07:27:50.876Z,101727.28
2023-01-05T07:30:18.017Z,101726.44
2023-01-05T07:32:46.280Z,101730.09
2023-01-05T07:35:13.365Z,101732.75
2023-01-05T07:37:40.319Z,101730.25
2023-01-05T07:40:08.408Z,101728.44
2023-01-05T07:42:35.321Z,101730.09
2023-01-05T07:45:02.458Z,101743.41
2023-01-05T07:47:29.242Z,101745.06
2023-01-05T07:49:57.322Z,101736.09
2023-01-05T07:52:24.160Z,101736.09
2023-01-05T07:54:51.018Z,101742.06
2023-01-05T07:57:17.789Z,101750.88
2023-01-05T07:59:44.706Z,101751.06
2023-01-05T08:02:11.564Z,101756.19
2023-01-05T08:04:38.751Z,101759.69
2023-01-05T08:07:11.475Z,101754.38
2023-01-05T08:09:57.272Z,101773.00
2023-01-05T08:12:24.009Z,101766.69
2023-01-05T08:14:50.788Z,101769.34
2023-01-05T08:17:17.547Z,101764.88
2023-01-05T08:19:44.471Z,101768.19
2023-01-05T08:22:13.457Z,101778.69
2023-01-05T08:24:40.373Z,101777.84
2023-01-05T08:27:07.314Z,101783.00
2023-01-05T08:29:34.535Z,101787.31
2023-01-05T08:32:01.422Z,101795.16
2023-01-05T08:34:34.280Z,101795.81
2023-01-05T08:37:01.759Z,101795.66
2023-01-05T08:39:36.566Z,101798.31
2023-01-05T08:42:03.830Z,101800.16
2023-01-05T08:44:30.949Z,101806.94
2023-01-05T08:46:57.856Z,101811.28
2023-01-05T08:49:24.870Z,101812.97
2023-01-05T08:51:52.347Z,101813.78
2023-01-05T08:54:19.611Z,101821.78
2023-01-05T08:56:50.605Z,101827.94
2023-01-05T08:59:17.721Z,101824.44
2023-01-05T09:01:44.787Z,101830.75
2023-01-05T09:04:11.798Z,101839.59
2023-01-05T09:06:38.704Z,101844.91
2023-01-05T09:09:05.656Z,101844.91
2023-01-05T09:11:35.191Z,101851.91
2023-01-05T09:14:03.665Z,101851.91
2023-01-05T09:19:21.206Z,101854.41
2023-01-05T09:21:49.425Z,101865.91
2023-01-05T09:24:16.554Z,101872.03
2023-01-05T09:26:43.969Z,101865.91
2023-01-05T09:29:14.660Z,101862.41
2023-01-05T09:31:42.265Z,101856.22
2023-01-05T09:34:09.354Z,101867.88
2023-01-05T09:36:39.209Z,101868.88
2023-01-05T09:39:06.405Z,101870.53
2023-01-05T09:41:36.846Z,101881.03
2023-01-05T09:44:29.441Z,101888.00
2023-01-05T09:47:00.793Z,101888.00
2023-01-05T09:49:31.569Z,101888.00
2023-01-05T09:52:01.401Z,101893.16
2023-01-05T09:54:31.005Z,101905.50
2023-01-05T09:57:15.436Z,101905.50
2023-01-05T09:59:46.804Z,101904.50
2023-01-05T10:02:24.209Z,101907.84
2023-01-05T10:04:53.103Z,101905.16
2023-01-05T10:07:29.809Z,101909.31
2023-01-05T10:10:01.202Z,101909.16
2023-01-05T10:13:01.089Z,101912.81
2023-01-05T10:15:34.698Z,101916.47
2023-01-05T10:18:10.790Z,101919.97
2023-01-05T10:20:49.635Z,101920.81
2023-01-05T10:23:31.317Z,101925.13
2023-01-05T10:26:05.503Z,101923.31
2023-01-05T10:28:42.013Z,101927.66
2023-01-05T10:31:20.142Z,101926.66
2023-01-05T10:33:55.850Z,101929.31
2023-01-05T10:39:55.754Z,101922.16
2023-01-05T10:42:34.820Z,101929.31
2023-01-05T10:45:03.696Z,101935.47
2023-01-05T10:47:37.089Z,101930.16
2023-01-05T10:50:17.523Z,101935.47
2023-01-05T10:52:46.306Z,101930.78
2023-01-05T10:55:17.950Z,101940.50
2023-01-05T10:57:55.511Z,101946.66
2023-01-05T11:00:41.012Z,101943.00
2023-01-05T11:03:15.869Z,101936.84
2023-01-05T11:05:45.394Z,101925.19
2023-01-05T11:08:19.231Z,101924.19
2023-01-05T11:10:52.245Z,101920.53
2023-01-05T11:13:27.573Z,101917.69
2023-01-05T11:15:57.079Z,101921.19
2023-01-05T11:18:32.803Z,101918.19
2023-01-05T11:21:09.273Z,101926.88
2023-01-05T11:23:38.264Z,101930.34
2023-01-05T11:26:27.182Z,101926.50
2023-01-05T11:29:14.165Z,101927.19
2023-01-05T11:31:48.090Z,101924.53
2023-01-05T11:34:28.230Z,101920.03
2023-01-05T11:36:59.177Z,101916.22
2023-01-05T11:39:31.941Z,101911.53
2023-01-05T11:42:21.532Z,101908.53
2023-01-05T11:45:00.399Z,101917.00
2023-01-05T11:47:35.292Z,101913.19
2023-01-05T11:50:15.091Z,101926.19
2023-01-05T11:52:47.291Z,101919.69
2023-01-05T11:55:38.118Z,101918.53
2023-01-05T11:58:31.536Z,101918.38
2023-01-05T12:01:37.954Z,101916.19
2023-01-05T12:04:16.829Z,101930.19
2023-01-05T12:07:09.101Z,101923.03
2023-01-05T12:09:38.552Z,101919.50
2023-01-05T12:12:40.800Z,101921.19
2023-01-05T12:15:34.539Z,101927.16
2023-01-05T12:18:15.060Z,101916.34
2023-01-05T12:21:09.757Z,101914.34
2023-01-05T12:24:11.777Z,101912.16
2023-01-05T12:26:46.001Z,101918.16
2023-01-05T12:35:56.647Z,101917.00
2023-01-05T12:38:35.619Z,101921.13
2023-01-05T12:41:19.526Z,101916.47
2023-01-05T12:44:00.537Z,101911.97
2023-01-05T12:46:46.778Z,101923.31
2023-01-05T12:49:19.220Z,101918.81
2023-01-05T12:51:50.963Z,101911.28
2023-01-05T12:54:32.074Z,101917.91
2023-01-05T12:57:05.504Z,101905.41
2023-01-05T12:59:40.645Z,101911.25
2023-01-05T13:02:24.302Z,101907.59
2023-01-05T13:04:56.827Z,101911.94
2023-01-05T13:07:29.477Z,101914.59
2023-01-05T13:10:03.035Z,101918.91
2023-01-05T13:12:36.539Z,101914.41
2023-01-05T13:15:17.066Z,101918.75
2023-01-05T13:17:48.899Z,101915.06
2023-01-05T13:20:36.068Z,101906.25
2023-01-05T13:23:06.853Z,101912.41
2023-01-05T13:25:45.164Z,101909.06
2023-01-05T13:28:24.622Z,101919.75
2023-01-05T13:31:08.956Z,101911.09
2023-01-05T13:34:13.126Z,101920.09
2023-01-05T13:37:01.566Z,101915.75
2023-01-05T13:39:49.743Z,101917.59
2023-01-05T13:42:40.825Z,101922.94
2023-01-05T13:45:26.023Z,101924.94
2023-01-05T13:48:44.046Z,101924.75
2023-01-05T13:51:41.745Z,101919.78
2023-01-05T13:54:17.945Z,101916.28
2023-01-05T13:56:47.045Z,101914.63
2023-01-05T13:59:35.150Z,101916.28
2023-01-05T14:02:26.373Z,101914.63
2023-01-05T14:04:53.424Z,101911.28
2023-01-05T14:07:20.998Z,101907.78
2023-01-05T14:09:51.697Z,101908.44
2023-01-05T14:12:47.929Z,101908.44
2023-01-05T14:15:36.560Z,101910.44
2023-01-05T14:18:06.090Z,101912.44
2023-01-05T14:20:46.322Z,101916.94
2023-01-05T14:24:02.139Z,101917.13
2023-01-05T14:27:02.291Z,101917.31
2023-01-05T14:30:00.224Z,101925.63
2023-01-05T14:32:29.196Z,101923.97
2023-01-05T14:35:02.364Z,101928.66
2023-01-05T14:37:36.033Z,101931.47
2023-01-05T14:40:20.734Z,101935.16
2023-01-05T14:42:49.891Z,101934.47
2023-01-05T14:45:23.529Z,101928.16
2023-01-05T14:47:54.155Z,101922.16
2023-01-05T14:50:40.866Z,101925.16
2023-01-05T14:53:15.207Z,101930.66
2023-01-05T14:56:15.327Z,101932.66
2023-01-05T14:59:14.866Z,101928.34
2023-01-05T15:01:48.947Z,101924.16
2023-01-05T15:04:20.217Z,101918.16
2023-01-05T15:07:15.378Z,101927.16
2023-01-05T15:10:07.323Z,101917.53
2023-01-05T15:13:09.442Z,101915.03
2023-01-05T15:15:46.742Z,101928.34
2023-01-05T15:19:03.505Z,101927.69
2023-01-05T15:21:59.800Z,101929.50
2023-01-05T15:25:15.707Z,101928.84
2023-01-05T15:28:02.841Z,101917.69
2023-01-05T15:30:47.452Z,101928.34
2023-01-05T15:33:19.498Z,101921.34
2023-01-05T15:36:01.930Z,101914.34
2023-01-05T15:38:30.744Z,101913.50
2023-01-05T15:41:05.573Z,101905.53
2023-01-05T15:43:33.394Z,101912.88
2023-01-05T15:46:01.545Z,101912.19
2023-01-05T15:48:35.880Z,101913.19
2023-01-05T15:51:03.241Z,101915.03
2023-01-05T15:53:32.973Z,101913.34
2023-01-05T15:56:03.509Z,101913.72
2023-01-05T15:58:32.601Z,101917.22
2023-01-05T16:01:02.299Z,101914.69
2023-01-05T16:03:32.315Z,101910.38
2023-01-05T16:06:02.145Z,101912.19
2023-01-05T16:08:31.878Z,101911.53
2023-01-05T16:11:02.183Z,101916.53
2023-01-05T16:13:35.800Z,101910.38
2023-01-05T16:16:09.782Z,101911.19
2023-01-05T16:18:40.903Z,101910.38
2023-01-05T16:21:22.969Z,101912.19
2023-01-05T16:23:54.153Z,101913.19
2023-01-05T16:26:21.971Z,101916.22
2023-01-05T16:28:50.189Z,101919.19
2023-01-05T16:31:27.942Z,101911.34
2023-01-05T16:34:03.903Z,101914.38
2023-01-05T16:36:31.037Z,101913.69
2023-01-05T16:39:12.996Z,101902.53
2023-01-05T16:42:00.124Z,101894.06
2023-01-05T16:44:33.149Z,101889.88
2023-01-05T16:47:08.926Z,101882.84
2023-01-05T16:49:43.636Z,101879.34
2023-01-05T16:52:23.820Z,101882.19
2023-01-05T16:55:19.965Z,101884.69
2023-01-05T16:57:51.404Z,101870.72
2023-01-05T17:00:38.070Z,101877.88
2023-01-05T17:03:27.647Z,101874.22
2023-01-05T17:05:55.315Z,101873.53
2023-01-05T17:08:27.786Z,101884.19
2023-01-05T17:10:56.190Z,101885.19
2023-01-05T17:13:25.814Z,101880.84
2023-01-05T17:15:54.201Z,101877.19
2023-01-05T17:18:26.337Z,101883.19
2023-01-05T17:20:55.283Z,101886.84
2023-01-05T17:23:24.725Z,101884.19
2023-01-05T17:28:25.611Z,101888.00
2023-01-05T17:30:54.154Z,101879.19
2023-01-05T17:33:21.073Z,101874.88
2023-01-05T17:38:16.001Z,101878.34
2023-01-05T17:40:44.708Z,101878.19
2023-01-05T17:43:11.564Z,101869.38
2023-01-05T17:45:41.349Z,101867.69
2023-01-05T17:50:38.573Z,101867.69
2023-01-05T17:53:05.888Z,101866.06
2023-01-05T17:55:34.286Z,101856.25
2023-01-05T17:58:02.256Z,101860.53
2023-01-05T18:00:35.029Z,101851.72
2023-01-05T18:03:02.945Z,101853.38
2023-01-05T18:05:32.072Z,101857.88
2023-01-05T18:07:58.958Z,101848.25
2023-01-05T18:10:28.233Z,101846.41
2023-01-05T18:12:57.039Z,101845.59
2023-01-05T18:15:24.291Z,101842.09
2023-01-05T18:17:51.301Z,101841.91
2023-01-05T18:20:20.097Z,101840.25
2023-01-05T18:22:49.961Z,101829.59
2023-01-05T18:25:17.481Z,101833.06
2023-01-05T18:27:44.673Z,101825.28
2023-01-05T18:30:12.969Z,101821.94
2023-01-05T18:32:40.573Z,101822.63
2023-01-05T18:35:10.274Z,101815.63
2023-01-05T18:37:38.010Z,101811.13
2023-01-05T18:40:07.488Z,101808.47
2023-01-05T18:42:35.443Z,101815.63
2023-01-05T18:45:13.848Z,101811.13
2023-01-05T18:47:46.675Z,101806.63
2023-01-05T18:50:13.680Z,101809.31
2023-01-05T18:52:40.516Z,101800.47
2023-01-05T18:55:10.075Z,101795.97
2023-01-05T18:57:37.020Z,101792.31
2023-01-05T19:00:06.135Z,101793.97
2023-01-05T19:02:33.113Z,101785.97
2023-01-05T19:04:59.953Z,101784.16
2023-01-05T19:07:27.054Z,101794.47
2023-01-05T19:09:54.089Z,101788.97
2023-01-05T19:12:22.474Z,101788.78
2023-01-05T19:14:49.422Z,101793.00
2023-01-05T19:17:16.494Z,101789.34
2023-01-05T19:19:43.461Z,101788.34
2023-01-05T19:22:10.524Z,101792.66
2023-01-05T19:24:37.356Z,101791.84
2023-01-05T19:27:05.828Z,101790.84
2023-01-05T19:29:34.215Z,101784.84
2023-01-05T19:32:01.200Z,101784.69
2023-01-05T19:34:28.164Z,101789.81
2023-01-05T19:36:55.064Z,101795.13
2023-01-05T19:39:22.200Z,101794.97
2023-01-05T19:41:51.476Z,101788.66
2023-01-05T19:44:21.773Z,101796.47
2023-01-05T19:46:53.323Z,101786.66
2023-01-05T19:49:21.050Z,101794.50
2023-01-05T19:51:48.555Z,101798.78
2023-01-05T19:54:16.059Z,101792.47
2023-01-05T19:56:43.993Z,101792.31
2023-01-05T19:59:15.313Z,101792.16
2023-01-05T20:01:43.238Z,101789.31
2023-01-05T20:04:11.640Z,101773.34
2023-01-05T20:06:40.861Z,101780.31
2023-01-05T20:09:11.770Z,101774.81
2023-01-05T20:11:40.914Z,101769.47
2023-01-05T20:14:11.748Z,101775.63
2023-01-05T20:16:39.315Z,101769.31
2023-01-05T20:19:06.348Z,101762.81
2023-01-05T20:21:35.043Z,101766.31
2023-01-05T20:24:03.121Z,101767.97
2023-01-05T20:26:31.233Z,101762.66
2023-01-05T20:29:00.961Z,101760.63
2023-01-05T20:31:31.492Z,101760.78
2023-01-05T20:34:08.065Z,101763.28
2023-01-05T20:36:37.985Z,101763.28
2023-01-05T20:39:06.536Z,101763.13
2023-01-05T20:41:35.436Z,101762.97
2023-01-05T20:44:02.655Z,101760.31
2023-01-05T20:46:32.717Z,101762.13
2023-01-05T20:49:05.781Z,101752.31
2023-01-05T20:51:32.945Z,101751.31
2023-01-05T20:54:02.741Z,101750.31
2023-01-05T20:56:38.490Z,101750.31
2023-01-05T20:59:06.611Z,101751.09
2023-01-05T21:01:33.623Z,101759.94
2023-01-05T21:04:00.880Z,101755.44
2023-01-05T21:06:28.925Z,101761.78
2023-01-05T21:08:56.509Z,101756.63
2023-01-05T21:11:26.163Z,101759.94
2023-01-05T21:13:55.199Z,101755.63
2023-01-05T21:16:24.244Z,101747.66
2023-01-05T21:18:52.592Z,101753.63
2023-01-05T21:21:21.033Z,101758.94
2023-01-05T21:23:51.187Z,101752.78
2023-01-05T21:26:21.151Z,101750.31
2023-01-05T21:28:51.283Z,101746.13
2023-01-05T21:31:20.327Z,101748.81
2023-01-05T21:33:47.483Z,101745.47
2023-01-05T21:36:16.347Z,101747.47
2023-01-05T21:39:01.883Z,101750.13
2023-01-05T21:41:49.222Z,101751.16
2023-01-05T21:44:20.068Z,101753.00
2023-01-05T21:46:49.221Z,101749.66
2023-01-05T21:49:16.997Z,101749.66
2023-01-05T21:52:02.885Z,101747.16
2023-01-05T21:54:48.421Z,101750.81
2023-01-05T21:57:15.399Z,101745.50
2023-01-05T21:59:46.239Z,101752.00
2023-01-05T22:02:15.151Z,101744.03
2023-01-05T22:04:43.092Z,101744.03
2023-01-05T22:07:10.346Z,101744.03
2023-01-05T22:09:38.315Z,101741.34
2023-01-05T22:12:08.784Z,101740.53
2023-01-05T22:14:36.131Z,101732.69
2023-01-05T22:17:06.930Z,101731.69
2023-01-05T22:19:33.939Z,101732.69
2023-01-05T22:22:01.115Z,101730.88
2023-01-05T22:24:28.894Z,101734.38
2023-01-05T22:26:56.097Z,101722.88
2023-01-05T22:29:23.596Z,101723.03
2023-01-05T22:31:50.976Z,101715.03
2023-01-05T22:34:19.851Z,101723.19
2023-01-05T22:36:46.881Z,101717.03
2023-01-05T22:39:14.056Z,101713.38
2023-01-05T22:41:41.848Z,101713.38
2023-01-05T22:44:08.813Z,101710.72
2023-01-05T22:46:35.906Z,101710.72
2023-01-05T22:49:03.062Z,101704.56
2023-01-05T22:51:33.636Z,101701.06
2023-01-05T22:54:01.252Z,101701.06
2023-01-05T22:56:30.930Z,101698.41
2023-01-05T22:58:58.514Z,101702.09
2023-01-05T23:01:27.054Z,101697.75
2023-01-05T23:03:55.925Z,101701.59
2023-01-05T23:06:22.854Z,101702.41
2023-01-05T23:08:52.227Z,101705.91
2023-01-05T23:11:22.345Z,101701.59
2023-01-05T23:13:50.807Z,101706.91
2023-01-05T23:16:18.384Z,101707.91
2023-01-05T23:18:45.664Z,101710.41
2023-01-05T23:21:14.575Z,101697.91
2023-01-05T23:23:41.772Z,101700.59
2023-01-05T23:26:11.848Z,101705.06
2023-01-05T23:28:39.281Z,101698.09
2023-01-05T23:31:06.721Z,101701.75
2023-01-05T23:33:35.798Z,101697.25
2023-01-05T23:36:03.936Z,101688.44
2023-01-05T23:38:31.693Z,101690.25
2023-01-05T23:41:00.294Z,101683.47
2023-01-05T23:43:30.331Z,101691.44
2023-01-05T23:46:01.973Z,101692.28
2023-01-05T23:48:29.616Z,101687.94
2023-01-05T23:50:57.685Z,101689.78
2023-01-05T23:53:25.726Z,101681.78
2023-01-05T23:55:52.847Z,101680.78
2023-01-05T23:58:20.866Z,101667.63
